sensor_id;sensor_type;location;lat;lon;timestamp;P1;durP1;ratioP1;P2;durP2;ratioP2
66020;SDS011;52789;59.980;30.346;2023-10-31T00:00:19;9.83;;;8.27;;
66020;SDS011;52789;59.980;30.346;2023-10-31T00:02:45;13.17;;;8.13;;
66020;SDS011;52789;59.980;30.346;2023-10-31T00:05:11;9.97;;;7.13;;
66020;SDS011;52789;59.980;30.346;2023-10-31T00:07:36;14.93;;;7.67;;
66020;SDS011;52789;59.980;30.346;2023-10-31T00:10:02;12.47;;;7.23;;
66020;SDS011;52789;59.980;30.346;2023-10-31T00:12:30;11.53;;;6.73;;
66020;SDS011;52789;59.980;30.346;2023-10-31T00:14:55;12.30;;;7.03;;
66020;SDS011;52789;59.980;30.346;2023-10-31T00:17:21;10.23;;;7.07;;
66020;SDS011;52789;59.980;30.346;2023-10-31T00:19:46;8.93;;;6.87;;
66020;SDS011;52789;59.980;30.346;2023-10-31T00:22:12;13.67;;;7.23;;
66020;SDS011;52789;59.980;30.346;2023-10-31T00:24:37;10.30;;;6.73;;
66020;SDS011;52789;59.980;30.346;2023-10-31T00:27:03;9.73;;;6.97;;
66020;SDS011;52789;59.980;30.346;2023-10-31T00:29:28;10.27;;;7.27;;
66020;SDS011;52789;59.980;30.346;2023-10-31T00:31:54;11.47;;;6.77;;
66020;SDS011;52789;59.980;30.346;2023-10-31T00:34:20;12.40;;;8.03;;
66020;SDS011;52789;59.980;30.346;2023-10-31T00:36:45;13.83;;;8.30;;
66020;SDS011;52789;59.980;30.346;2023-10-31T00:39:11;11.60;;;8.13;;
66020;SDS011;52789;59.980;30.346;2023-10-31T00:41:37;14.97;;;7.73;;
66020;SDS011;52789;59.980;30.346;2023-10-31T00:44:04;12.33;;;8.00;;
66020;SDS011;52789;59.980;30.346;2023-10-31T00:46:30;11.50;;;7.83;;
66020;SDS011;52789;59.980;30.346;2023-10-31T00:48:55;9.03;;;6.93;;
66020;SDS011;52789;59.980;30.346;2023-10-31T00:51:21;11.17;;;7.77;;
66020;SDS011;52789;59.980;30.346;2023-10-31T00:53:46;12.83;;;8.43;;
66020;SDS011;52789;59.980;30.346;2023-10-31T00:56:12;11.00;;;7.47;;
66020;SDS011;52789;59.980;30.346;2023-10-31T00:58:37;8.50;;;6.77;;
66020;SDS011;52789;59.980;30.346;2023-10-31T01:01:03;10.17;;;7.07;;
66020;SDS011;52789;59.980;30.346;2023-10-31T01:03:29;9.67;;;6.87;;
66020;SDS011;52789;59.980;30.346;2023-10-31T01:05:54;12.20;;;7.43;;
66020;SDS011;52789;59.980;30.346;2023-10-31T01:08:20;11.87;;;7.50;;
66020;SDS011;52789;59.980;30.346;2023-10-31T01:10:45;11.33;;;7.30;;
66020;SDS011;52789;59.980;30.346;2023-10-31T01:13:11;10.93;;;7.57;;
66020;SDS011;52789;59.980;30.346;2023-10-31T01:15:36;8.73;;;6.93;;
66020;SDS011;52789;59.980;30.346;2023-10-31T01:18:02;10.37;;;7.27;;
66020;SDS011;52789;59.980;30.346;2023-10-31T01:20:27;12.57;;;7.63;;
66020;SDS011;52789;59.980;30.346;2023-10-31T01:22:53;9.33;;;7.07;;
66020;SDS011;52789;59.980;30.346;2023-10-31T01:25:18;10.73;;;7.53;;
66020;SDS011;52789;59.980;30.346;2023-10-31T01:27:44;13.43;;;8.57;;
66020;SDS011;52789;59.980;30.346;2023-10-31T01:30:10;11.03;;;7.87;;
66020;SDS011;52789;59.980;30.346;2023-10-31T01:32:36;11.37;;;8.00;;
66020;SDS011;52789;59.980;30.346;2023-10-31T01:35:01;11.03;;;7.73;;
66020;SDS011;52789;59.980;30.346;2023-10-31T01:37:29;11.10;;;8.33;;
66020;SDS011;52789;59.980;30.346;2023-10-31T01:39:55;14.10;;;8.50;;
66020;SDS011;52789;59.980;30.346;2023-10-31T01:42:20;20.60;;;9.43;;
66020;SDS011;52789;59.980;30.346;2023-10-31T01:44:46;12.37;;;7.53;;
66020;SDS011;52789;59.980;30.346;2023-10-31T01:47:11;13.80;;;8.07;;
66020;SDS011;52789;59.980;30.346;2023-10-31T01:49:37;10.87;;;8.50;;
66020;SDS011;52789;59.980;30.346;2023-10-31T01:52:03;15.87;;;9.77;;
66020;SDS011;52789;59.980;30.346;2023-10-31T01:54:31;11.83;;;8.13;;
66020;SDS011;52789;59.980;30.346;2023-10-31T01:56:58;16.47;;;10.07;;
66020;SDS011;52789;59.980;30.346;2023-10-31T01:59:25;13.60;;;8.87;;
66020;SDS011;52789;59.980;30.346;2023-10-31T02:01:51;12.93;;;8.57;;
66020;SDS011;52789;59.980;30.346;2023-10-31T02:04:17;9.33;;;7.43;;
66020;SDS011;52789;59.980;30.346;2023-10-31T02:06:43;9.80;;;6.53;;
66020;SDS011;52789;59.980;30.346;2023-10-31T02:09:09;9.93;;;6.13;;
66020;SDS011;52789;59.980;30.346;2023-10-31T02:11:34;7.33;;;6.40;;
66020;SDS011;52789;59.980;30.346;2023-10-31T02:14:00;8.17;;;6.60;;
66020;SDS011;52789;59.980;30.346;2023-10-31T02:16:27;10.33;;;7.03;;
66020;SDS011;52789;59.980;30.346;2023-10-31T02:18:53;12.80;;;7.57;;
66020;SDS011;52789;59.980;30.346;2023-10-31T02:21:19;12.20;;;8.03;;
66020;SDS011;52789;59.980;30.346;2023-10-31T02:23:58;11.30;;;8.10;;
66020;SDS011;52789;59.980;30.346;2023-10-31T02:26:31;15.60;;;8.17;;
66020;SDS011;52789;59.980;30.346;2023-10-31T02:28:57;13.33;;;7.80;;
66020;SDS011;52789;59.980;30.346;2023-10-31T02:31:23;10.83;;;7.33;;
66020;SDS011;52789;59.980;30.346;2023-10-31T02:33:50;14.10;;;7.93;;
66020;SDS011;52789;59.980;30.346;2023-10-31T02:36:15;12.80;;;8.30;;
66020;SDS011;52789;59.980;30.346;2023-10-31T02:38:41;13.10;;;8.60;;
66020;SDS011;52789;59.980;30.346;2023-10-31T02:41:06;14.77;;;9.10;;
66020;SDS011;52789;59.980;30.346;2023-10-31T02:43:32;11.63;;;7.80;;
66020;SDS011;52789;59.980;30.346;2023-10-31T02:45:58;14.03;;;8.43;;
66020;SDS011;52789;59.980;30.346;2023-10-31T02:48:23;10.97;;;7.20;;
66020;SDS011;52789;59.980;30.346;2023-10-31T02:50:50;13.47;;;7.93;;
66020;SDS011;52789;59.980;30.346;2023-10-31T02:53:19;11.60;;;8.20;;
66020;SDS011;52789;59.980;30.346;2023-10-31T02:55:44;12.80;;;7.90;;
66020;SDS011;52789;59.980;30.346;2023-10-31T02:58:10;13.97;;;8.07;;
66020;SDS011;52789;59.980;30.346;2023-10-31T03:00:36;11.40;;;7.13;;
66020;SDS011;52789;59.980;30.346;2023-10-31T03:03:02;16.47;;;8.27;;
66020;SDS011;52789;59.980;30.346;2023-10-31T03:05:28;15.03;;;9.53;;
66020;SDS011;52789;59.980;30.346;2023-10-31T03:07:53;10.17;;;8.30;;
66020;SDS011;52789;59.980;30.346;2023-10-31T03:10:19;13.50;;;8.40;;
66020;SDS011;52789;59.980;30.346;2023-10-31T03:12:45;13.30;;;9.30;;
66020;SDS011;52789;59.980;30.346;2023-10-31T03:15:11;14.53;;;9.37;;
66020;SDS011;52789;59.980;30.346;2023-10-31T03:17:36;11.83;;;7.80;;
66020;SDS011;52789;59.980;30.346;2023-10-31T03:20:02;15.43;;;9.87;;
66020;SDS011;52789;59.980;30.346;2023-10-31T03:22:29;15.20;;;10.20;;
66020;SDS011;52789;59.980;30.346;2023-10-31T03:24:55;14.93;;;8.67;;
66020;SDS011;52789;59.980;30.346;2023-10-31T03:27:20;14.47;;;8.90;;
66020;SDS011;52789;59.980;30.346;2023-10-31T03:29:46;13.73;;;8.70;;
66020;SDS011;52789;59.980;30.346;2023-10-31T03:32:12;13.77;;;9.07;;
66020;SDS011;52789;59.980;30.346;2023-10-31T03:34:37;15.23;;;7.50;;
66020;SDS011;52789;59.980;30.346;2023-10-31T03:37:03;12.97;;;8.50;;
66020;SDS011;52789;59.980;30.346;2023-10-31T03:39:29;14.63;;;8.40;;
66020;SDS011;52789;59.980;30.346;2023-10-31T03:41:55;12.43;;;7.83;;
66020;SDS011;52789;59.980;30.346;2023-10-31T03:44:21;13.17;;;7.80;;
66020;SDS011;52789;59.980;30.346;2023-10-31T03:46:46;12.17;;;8.93;;
66020;SDS011;52789;59.980;30.346;2023-10-31T03:49:12;20.87;;;8.57;;
66020;SDS011;52789;59.980;30.346;2023-10-31T03:51:37;11.53;;;7.63;;
66020;SDS011;52789;59.980;30.346;2023-10-31T03:54:03;11.33;;;8.10;;
66020;SDS011;52789;59.980;30.346;2023-10-31T03:56:28;10.60;;;7.90;;
66020;SDS011;52789;59.980;30.346;2023-10-31T03:58:54;12.50;;;8.50;;
66020;SDS011;52789;59.980;30.346;2023-10-31T04:01:20;13.60;;;8.70;;
66020;SDS011;52789;59.980;30.346;2023-10-31T04:03:45;13.87;;;8.73;;
66020;SDS011;52789;59.980;30.346;2023-10-31T04:06:11;10.50;;;7.87;;
66020;SDS011;52789;59.980;30.346;2023-10-31T04:08:37;12.40;;;8.90;;
66020;SDS011;52789;59.980;30.346;2023-10-31T04:11:02;12.63;;;9.07;;
66020;SDS011;52789;59.980;30.346;2023-10-31T04:13:28;12.17;;;8.97;;
66020;SDS011;52789;59.980;30.346;2023-10-31T04:15:54;14.13;;;8.63;;
66020;SDS011;52789;59.980;30.346;2023-10-31T04:18:19;16.67;;;10.07;;
66020;SDS011;52789;59.980;30.346;2023-10-31T04:20:45;13.63;;;9.47;;
66020;SDS011;52789;59.980;30.346;2023-10-31T04:23:10;17.23;;;10.60;;
66020;SDS011;52789;59.980;30.346;2023-10-31T04:25:37;15.20;;;9.53;;
66020;SDS011;52789;59.980;30.346;2023-10-31T04:28:03;13.97;;;8.97;;
66020;SDS011;52789;59.980;30.346;2023-10-31T04:30:29;13.83;;;9.23;;
66020;SDS011;52789;59.980;30.346;2023-10-31T04:32:54;13.10;;;10.23;;
66020;SDS011;52789;59.980;30.346;2023-10-31T04:35:20;16.60;;;11.33;;
66020;SDS011;52789;59.980;30.346;2023-10-31T04:37:45;14.47;;;10.27;;
66020;SDS011;52789;59.980;30.346;2023-10-31T04:40:11;16.43;;;9.93;;
66020;SDS011;52789;59.980;30.346;2023-10-31T04:42:38;16.13;;;10.57;;
66020;SDS011;52789;59.980;30.346;2023-10-31T04:45:06;18.52;;;11.77;;
66020;SDS011;52789;59.980;30.346;2023-10-31T04:47:32;43.73;;;23.60;;
66020;SDS011;52789;59.980;30.346;2023-10-31T04:49:58;16.60;;;10.47;;
66020;SDS011;52789;59.980;30.346;2023-10-31T04:52:23;16.13;;;9.67;;
66020;SDS011;52789;59.980;30.346;2023-10-31T04:54:51;18.00;;;9.57;;
66020;SDS011;52789;59.980;30.346;2023-10-31T04:57:17;13.17;;;9.23;;
66020;SDS011;52789;59.980;30.346;2023-10-31T04:59:42;17.33;;;10.97;;
66020;SDS011;52789;59.980;30.346;2023-10-31T05:02:08;12.73;;;8.70;;
66020;SDS011;52789;59.980;30.346;2023-10-31T05:04:33;14.63;;;10.27;;
66020;SDS011;52789;59.980;30.346;2023-10-31T05:06:59;16.70;;;10.33;;
66020;SDS011;52789;59.980;30.346;2023-10-31T05:09:25;13.07;;;9.30;;
66020;SDS011;52789;59.980;30.346;2023-10-31T05:11:51;12.83;;;8.27;;
66020;SDS011;52789;59.980;30.346;2023-10-31T05:14:17;21.80;;;10.27;;
66020;SDS011;52789;59.980;30.346;2023-10-31T05:16:43;21.27;;;11.50;;
66020;SDS011;52789;59.980;30.346;2023-10-31T05:19:09;13.20;;;9.53;;
66020;SDS011;52789;59.980;30.346;2023-10-31T05:21:35;16.67;;;10.03;;
66020;SDS011;52789;59.980;30.346;2023-10-31T05:24:01;16.00;;;9.40;;
66020;SDS011;52789;59.980;30.346;2023-10-31T05:26:27;13.93;;;9.10;;
66020;SDS011;52789;59.980;30.346;2023-10-31T05:28:54;14.30;;;8.63;;
66020;SDS011;52789;59.980;30.346;2023-10-31T05:31:22;12.53;;;8.27;;
66020;SDS011;52789;59.980;30.346;2023-10-31T05:33:47;17.60;;;10.87;;
66020;SDS011;52789;59.980;30.346;2023-10-31T05:36:22;18.17;;;9.70;;
66020;SDS011;52789;59.980;30.346;2023-10-31T05:38:49;20.50;;;11.10;;
66020;SDS011;52789;59.980;30.346;2023-10-31T05:41:14;15.10;;;9.20;;
66020;SDS011;52789;59.980;30.346;2023-10-31T05:43:40;14.43;;;8.73;;
66020;SDS011;52789;59.980;30.346;2023-10-31T05:46:06;36.47;;;9.67;;
66020;SDS011;52789;59.980;30.346;2023-10-31T05:48:36;15.95;;;8.60;;
66020;SDS011;52789;59.980;30.346;2023-10-31T05:51:03;15.07;;;7.13;;
66020;SDS011;52789;59.980;30.346;2023-10-31T05:53:29;12.50;;;7.87;;
66020;SDS011;52789;59.980;30.346;2023-10-31T05:55:57;10.98;;;6.28;;
66020;SDS011;52789;59.980;30.346;2023-10-31T05:58:23;10.53;;;6.37;;
66020;SDS011;52789;59.980;30.346;2023-10-31T06:00:48;13.83;;;7.40;;
66020;SDS011;52789;59.980;30.346;2023-10-31T06:03:14;8.20;;;6.60;;
66020;SDS011;52789;59.980;30.346;2023-10-31T06:05:39;9.87;;;6.87;;
66020;SDS011;52789;59.980;30.346;2023-10-31T06:08:05;8.03;;;6.60;;
66020;SDS011;52789;59.980;30.346;2023-10-31T06:10:30;7.10;;;5.43;;
66020;SDS011;52789;59.980;30.346;2023-10-31T06:12:56;6.67;;;5.87;;
66020;SDS011;52789;59.980;30.346;2023-10-31T06:15:21;7.97;;;5.67;;
66020;SDS011;52789;59.980;30.346;2023-10-31T06:17:47;8.70;;;7.00;;
66020;SDS011;52789;59.980;30.346;2023-10-31T06:20:12;10.23;;;6.73;;
66020;SDS011;52789;59.980;30.346;2023-10-31T06:22:38;8.90;;;6.60;;
66020;SDS011;52789;59.980;30.346;2023-10-31T06:25:04;16.23;;;7.43;;
66020;SDS011;52789;59.980;30.346;2023-10-31T06:27:30;16.40;;;6.87;;
66020;SDS011;52789;59.980;30.346;2023-10-31T06:29:55;9.40;;;6.77;;
66020;SDS011;52789;59.980;30.346;2023-10-31T06:32:21;10.03;;;6.10;;
66020;SDS011;52789;59.980;30.346;2023-10-31T06:34:46;11.57;;;7.23;;
66020;SDS011;52789;59.980;30.346;2023-10-31T06:37:12;8.50;;;5.90;;
66020;SDS011;52789;59.980;30.346;2023-10-31T06:39:38;11.07;;;6.73;;
66020;SDS011;52789;59.980;30.346;2023-10-31T06:42:03;16.67;;;6.33;;
66020;SDS011;52789;59.980;30.346;2023-10-31T06:44:30;8.07;;;6.00;;
66020;SDS011;52789;59.980;30.346;2023-10-31T06:47:08;10.10;;;6.07;;
66020;SDS011;52789;59.980;30.346;2023-10-31T06:49:34;9.47;;;6.10;;
66020;SDS011;52789;59.980;30.346;2023-10-31T06:51:59;9.13;;;6.90;;
66020;SDS011;52789;59.980;30.346;2023-10-31T06:54:25;8.67;;;5.20;;
66020;SDS011;52789;59.980;30.346;2023-10-31T06:56:51;9.40;;;6.50;;
66020;SDS011;52789;59.980;30.346;2023-10-31T06:59:16;8.90;;;6.27;;
66020;SDS011;52789;59.980;30.346;2023-10-31T07:01:42;7.70;;;5.73;;
66020;SDS011;52789;59.980;30.346;2023-10-31T07:04:10;8.43;;;6.27;;
66020;SDS011;52789;59.980;30.346;2023-10-31T07:06:35;7.47;;;6.03;;
66020;SDS011;52789;59.980;30.346;2023-10-31T07:11:30;9.30;;;6.60;;
66020;SDS011;52789;59.980;30.346;2023-10-31T07:14:02;10.13;;;8.02;;
66020;SDS011;52789;59.980;30.346;2023-10-31T07:18:54;8.93;;;6.37;;
66020;SDS011;52789;59.980;30.346;2023-10-31T07:21:20;13.13;;;8.00;;
66020;SDS011;52789;59.980;30.346;2023-10-31T07:23:46;9.23;;;6.90;;
66020;SDS011;52789;59.980;30.346;2023-10-31T07:26:11;9.93;;;6.33;;
66020;SDS011;52789;59.980;30.346;2023-10-31T07:28:37;7.83;;;6.00;;
66020;SDS011;52789;59.980;30.346;2023-10-31T07:31:02;9.50;;;7.00;;
66020;SDS011;52789;59.980;30.346;2023-10-31T07:33:30;10.10;;;6.83;;
66020;SDS011;52789;59.980;30.346;2023-10-31T07:35:55;8.87;;;6.13;;
66020;SDS011;52789;59.980;30.346;2023-10-31T07:38:23;14.03;;;7.10;;
66020;SDS011;52789;59.980;30.346;2023-10-31T07:40:49;10.15;;;6.53;;
66020;SDS011;52789;59.980;30.346;2023-10-31T07:43:15;8.53;;;6.83;;
66020;SDS011;52789;59.980;30.346;2023-10-31T07:45:41;17.60;;;8.40;;
66020;SDS011;52789;59.980;30.346;2023-10-31T07:48:07;10.57;;;7.30;;
66020;SDS011;52789;59.980;30.346;2023-10-31T07:50:33;8.83;;;7.33;;
66020;SDS011;52789;59.980;30.346;2023-10-31T07:52:58;10.77;;;7.00;;
66020;SDS011;52789;59.980;30.346;2023-10-31T07:55:24;10.63;;;7.80;;
66020;SDS011;52789;59.980;30.346;2023-10-31T07:57:50;12.20;;;7.67;;
66020;SDS011;52789;59.980;30.346;2023-10-31T08:00:16;12.27;;;6.93;;
66020;SDS011;52789;59.980;30.346;2023-10-31T08:02:41;11.27;;;7.50;;
66020;SDS011;52789;59.980;30.346;2023-10-31T08:05:07;10.33;;;7.20;;
66020;SDS011;52789;59.980;30.346;2023-10-31T08:07:33;14.87;;;7.93;;
66020;SDS011;52789;59.980;30.346;2023-10-31T08:09:58;11.17;;;7.03;;
66020;SDS011;52789;59.980;30.346;2023-10-31T08:12:24;19.37;;;10.17;;
66020;SDS011;52789;59.980;30.346;2023-10-31T08:14:49;13.33;;;9.43;;
66020;SDS011;52789;59.980;30.346;2023-10-31T08:17:15;15.27;;;9.30;;
66020;SDS011;52789;59.980;30.346;2023-10-31T08:19:40;14.93;;;7.63;;
66020;SDS011;52789;59.980;30.346;2023-10-31T08:22:10;9.77;;;6.70;;
66020;SDS011;52789;59.980;30.346;2023-10-31T08:24:36;11.63;;;7.78;;
66020;SDS011;52789;59.980;30.346;2023-10-31T08:27:02;12.77;;;7.30;;
66020;SDS011;52789;59.980;30.346;2023-10-31T08:29:27;12.83;;;7.43;;
66020;SDS011;52789;59.980;30.346;2023-10-31T08:31:54;9.67;;;7.17;;
66020;SDS011;52789;59.980;30.346;2023-10-31T08:34:19;11.07;;;7.87;;
66020;SDS011;52789;59.980;30.346;2023-10-31T08:36:45;13.67;;;7.77;;
66020;SDS011;52789;59.980;30.346;2023-10-31T08:39:10;11.40;;;7.53;;
66020;SDS011;52789;59.980;30.346;2023-10-31T08:41:38;14.47;;;7.27;;
66020;SDS011;52789;59.980;30.346;2023-10-31T08:44:39;12.67;;;7.37;;
66020;SDS011;52789;59.980;30.346;2023-10-31T08:47:05;12.53;;;8.07;;
66020;SDS011;52789;59.980;30.346;2023-10-31T08:49:34;21.02;;;7.20;;
66020;SDS011;52789;59.980;30.346;2023-10-31T08:52:05;10.07;;;7.60;;
66020;SDS011;52789;59.980;30.346;2023-10-31T08:54:34;12.63;;;7.63;;
66020;SDS011;52789;59.980;30.346;2023-10-31T08:56:59;17.97;;;7.87;;
66020;SDS011;52789;59.980;30.346;2023-10-31T08:59:25;15.17;;;8.23;;
66020;SDS011;52789;59.980;30.346;2023-10-31T09:01:50;14.83;;;8.70;;
66020;SDS011;52789;59.980;30.346;2023-10-31T09:04:16;12.13;;;7.87;;
66020;SDS011;52789;59.980;30.346;2023-10-31T09:06:41;17.17;;;9.23;;
66020;SDS011;52789;59.980;30.346;2023-10-31T09:09:07;15.90;;;8.60;;
66020;SDS011;52789;59.980;30.346;2023-10-31T09:11:32;14.03;;;8.60;;
66020;SDS011;52789;59.980;30.346;2023-10-31T09:13:58;19.80;;;8.60;;
66020;SDS011;52789;59.980;30.346;2023-10-31T09:16:26;17.60;;;9.43;;
66020;SDS011;52789;59.980;30.346;2023-10-31T09:18:52;13.32;;;9.90;;
66020;SDS011;52789;59.980;30.346;2023-10-31T09:21:18;13.20;;;9.17;;
66020;SDS011;52789;59.980;30.346;2023-10-31T09:23:43;15.50;;;10.03;;
66020;SDS011;52789;59.980;30.346;2023-10-31T09:26:12;21.52;;;11.55;;
66020;SDS011;52789;59.980;30.346;2023-10-31T09:28:40;18.08;;;11.15;;
66020;SDS011;52789;59.980;30.346;2023-10-31T09:31:17;19.77;;;10.97;;
66020;SDS011;52789;59.980;30.346;2023-10-31T09:33:45;17.38;;;9.90;;
66020;SDS011;52789;59.980;30.346;2023-10-31T09:36:11;13.60;;;9.80;;
66020;SDS011;52789;59.980;30.346;2023-10-31T09:38:42;19.03;;;10.80;;
66020;SDS011;52789;59.980;30.346;2023-10-31T09:41:08;12.90;;;9.13;;
66020;SDS011;52789;59.980;30.346;2023-10-31T09:43:34;19.63;;;10.63;;
66020;SDS011;52789;59.980;30.346;2023-10-31T09:45:59;13.10;;;9.07;;
66020;SDS011;52789;59.980;30.346;2023-10-31T09:48:27;23.77;;;9.37;;
66020;SDS011;52789;59.980;30.346;2023-10-31T09:50:53;16.63;;;9.23;;
66020;SDS011;52789;59.980;30.346;2023-10-31T09:53:19;14.03;;;8.97;;
66020;SDS011;52789;59.980;30.346;2023-10-31T09:55:53;16.37;;;9.80;;
66020;SDS011;52789;59.980;30.346;2023-10-31T09:58:19;20.07;;;9.93;;
66020;SDS011;52789;59.980;30.346;2023-10-31T10:00:44;14.13;;;10.57;;
66020;SDS011;52789;59.980;30.346;2023-10-31T10:03:10;18.07;;;10.97;;
66020;SDS011;52789;59.980;30.346;2023-10-31T10:05:36;16.77;;;9.50;;
66020;SDS011;52789;59.980;30.346;2023-10-31T10:08:03;15.10;;;9.63;;
66020;SDS011;52789;59.980;30.346;2023-10-31T10:10:29;16.87;;;9.63;;
66020;SDS011;52789;59.980;30.346;2023-10-31T10:12:55;20.57;;;11.10;;
66020;SDS011;52789;59.980;30.346;2023-10-31T10:15:21;18.10;;;10.50;;
66020;SDS011;52789;59.980;30.346;2023-10-31T10:17:50;19.60;;;9.70;;
66020;SDS011;52789;59.980;30.346;2023-10-31T10:20:17;18.03;;;11.93;;
66020;SDS011;52789;59.980;30.346;2023-10-31T10:22:43;40.47;;;11.70;;
66020;SDS011;52789;59.980;30.346;2023-10-31T10:25:14;16.23;;;10.77;;
66020;SDS011;52789;59.980;30.346;2023-10-31T10:27:41;16.10;;;9.50;;
66020;SDS011;52789;59.980;30.346;2023-10-31T10:30:08;12.90;;;7.83;;
66020;SDS011;52789;59.980;30.346;2023-10-31T10:32:34;15.17;;;9.40;;
66020;SDS011;52789;59.980;30.346;2023-10-31T10:35:00;12.47;;;8.83;;
66020;SDS011;52789;59.980;30.346;2023-10-31T10:37:26;23.00;;;9.20;;
66020;SDS011;52789;59.980;30.346;2023-10-31T10:39:53;15.63;;;7.13;;
66020;SDS011;52789;59.980;30.346;2023-10-31T10:45:24;11.77;;;6.70;;
66020;SDS011;52789;59.980;30.346;2023-10-31T10:47:51;10.23;;;7.80;;
66020;SDS011;52789;59.980;30.346;2023-10-31T10:50:18;12.60;;;6.77;;
66020;SDS011;52789;59.980;30.346;2023-10-31T10:55:39;10.63;;;6.43;;
66020;SDS011;52789;59.980;30.346;2023-10-31T10:58:13;9.53;;;6.17;;
66020;SDS011;52789;59.980;30.346;2023-10-31T11:00:48;7.70;;;6.07;;
66020;SDS011;52789;59.980;30.346;2023-10-31T11:03:16;9.73;;;6.80;;
66020;SDS011;52789;59.980;30.346;2023-10-31T11:05:42;7.20;;;5.73;;
66020;SDS011;52789;59.980;30.346;2023-10-31T11:08:08;9.73;;;7.00;;
66020;SDS011;52789;59.980;30.346;2023-10-31T11:10:34;7.47;;;5.60;;
66020;SDS011;52789;59.980;30.346;2023-10-31T11:13:00;8.33;;;5.90;;
66020;SDS011;52789;59.980;30.346;2023-10-31T11:15:26;8.80;;;6.40;;
66020;SDS011;52789;59.980;30.346;2023-10-31T11:17:52;8.10;;;6.20;;
66020;SDS011;52789;59.980;30.346;2023-10-31T11:20:20;8.63;;;6.20;;
66020;SDS011;52789;59.980;30.346;2023-10-31T11:22:46;8.07;;;6.17;;
66020;SDS011;52789;59.980;30.346;2023-10-31T11:25:15;8.32;;;5.40;;
66020;SDS011;52789;59.980;30.346;2023-10-31T11:27:51;7.43;;;5.97;;
66020;SDS011;52789;59.980;30.346;2023-10-31T11:30:28;5.97;;;5.20;;
66020;SDS011;52789;59.980;30.346;2023-10-31T11:32:55;8.30;;;5.63;;
66020;SDS011;52789;59.980;30.346;2023-10-31T11:35:24;8.25;;;5.65;;
66020;SDS011;52789;59.980;30.346;2023-10-31T11:38:11;9.87;;;4.97;;
66020;SDS011;52789;59.980;30.346;2023-10-31T11:40:38;7.47;;;6.47;;
66020;SDS011;52789;59.980;30.346;2023-10-31T11:43:14;12.93;;;6.03;;
66020;SDS011;52789;59.980;30.346;2023-10-31T11:45:40;9.53;;;5.93;;
66020;SDS011;52789;59.980;30.346;2023-10-31T11:48:07;8.90;;;5.60;;
66020;SDS011;52789;59.980;30.346;2023-10-31T11:50:35;6.60;;;5.20;;
66020;SDS011;52789;59.980;30.346;2023-10-31T11:53:05;7.10;;;5.03;;
66020;SDS011;52789;59.980;30.346;2023-10-31T11:55:43;8.23;;;5.67;;
66020;SDS011;52789;59.980;30.346;2023-10-31T12:00:42;9.10;;;5.57;;
66020;SDS011;52789;59.980;30.346;2023-10-31T12:03:09;6.13;;;4.97;;
66020;SDS011;52789;59.980;30.346;2023-10-31T12:05:35;7.53;;;5.63;;
66020;SDS011;52789;59.980;30.346;2023-10-31T12:08:00;9.07;;;4.77;;
66020;SDS011;52789;59.980;30.346;2023-10-31T12:10:27;8.50;;;5.10;;
66020;SDS011;52789;59.980;30.346;2023-10-31T12:12:56;6.20;;;5.37;;
66020;SDS011;52789;59.980;30.346;2023-10-31T12:15:24;5.13;;;4.57;;
66020;SDS011;52789;59.980;30.346;2023-10-31T12:17:50;6.23;;;4.80;;
66020;SDS011;52789;59.980;30.346;2023-10-31T12:20:16;7.97;;;4.70;;
66020;SDS011;52789;59.980;30.346;2023-10-31T12:22:42;6.40;;;4.97;;
66020;SDS011;52789;59.980;30.346;2023-10-31T12:25:09;6.93;;;5.43;;
66020;SDS011;52789;59.980;30.346;2023-10-31T12:27:48;6.63;;;5.93;;
66020;SDS011;52789;59.980;30.346;2023-10-31T12:30:16;8.17;;;6.00;;
66020;SDS011;52789;59.980;30.346;2023-10-31T12:32:43;6.40;;;4.57;;
66020;SDS011;52789;59.980;30.346;2023-10-31T12:35:10;7.73;;;4.80;;
66020;SDS011;52789;59.980;30.346;2023-10-31T12:37:47;10.00;;;4.83;;
66020;SDS011;52789;59.980;30.346;2023-10-31T12:40:16;6.40;;;4.77;;
66020;SDS011;52789;59.980;30.346;2023-10-31T12:42:44;8.00;;;5.20;;
66020;SDS011;52789;59.980;30.346;2023-10-31T12:45:11;5.73;;;4.30;;
66020;SDS011;52789;59.980;30.346;2023-10-31T12:47:37;6.47;;;4.47;;
66020;SDS011;52789;59.980;30.346;2023-10-31T12:52:55;7.23;;;4.93;;
66020;SDS011;52789;59.980;30.346;2023-10-31T12:55:23;6.83;;;5.90;;
66020;SDS011;52789;59.980;30.346;2023-10-31T12:57:51;8.88;;;4.95;;
66020;SDS011;52789;59.980;30.346;2023-10-31T13:00:18;5.97;;;4.43;;
66020;SDS011;52789;59.980;30.346;2023-10-31T13:03:01;9.63;;;5.70;;
66020;SDS011;52789;59.980;30.346;2023-10-31T13:05:29;5.70;;;4.00;;
66020;SDS011;52789;59.980;30.346;2023-10-31T13:07:56;5.87;;;4.10;;
66020;SDS011;52789;59.980;30.346;2023-10-31T13:10:23;8.87;;;5.10;;
66020;SDS011;52789;59.980;30.346;2023-10-31T13:12:50;6.17;;;5.23;;
66020;SDS011;52789;59.980;30.346;2023-10-31T13:15:18;8.20;;;5.83;;
66020;SDS011;52789;59.980;30.346;2023-10-31T13:17:46;5.97;;;4.93;;
66020;SDS011;52789;59.980;30.346;2023-10-31T13:20:12;6.27;;;4.70;;
66020;SDS011;52789;59.980;30.346;2023-10-31T13:22:41;6.50;;;5.07;;
66020;SDS011;52789;59.980;30.346;2023-10-31T13:25:12;6.50;;;5.40;;
66020;SDS011;52789;59.980;30.346;2023-10-31T13:27:40;6.82;;;5.07;;
66020;SDS011;52789;59.980;30.346;2023-10-31T13:30:09;9.55;;;7.20;;
66020;SDS011;52789;59.980;30.346;2023-10-31T13:32:43;6.40;;;5.50;;
66020;SDS011;52789;59.980;30.346;2023-10-31T13:35:09;6.60;;;4.33;;
66020;SDS011;52789;59.980;30.346;2023-10-31T13:37:35;6.33;;;4.73;;
66020;SDS011;52789;59.980;30.346;2023-10-31T13:40:04;6.80;;;5.23;;
66020;SDS011;52789;59.980;30.346;2023-10-31T13:42:33;8.90;;;6.77;;
66020;SDS011;52789;59.980;30.346;2023-10-31T13:44:59;8.57;;;5.70;;
66020;SDS011;52789;59.980;30.346;2023-10-31T13:47:25;7.17;;;4.67;;
66020;SDS011;52789;59.980;30.346;2023-10-31T13:49:50;8.10;;;4.97;;
66020;SDS011;52789;59.980;30.346;2023-10-31T13:52:16;7.53;;;5.17;;
66020;SDS011;52789;59.980;30.346;2023-10-31T13:54:41;9.80;;;5.50;;
66020;SDS011;52789;59.980;30.346;2023-10-31T13:57:07;8.53;;;4.43;;
66020;SDS011;52789;59.980;30.346;2023-10-31T13:59:32;6.53;;;4.70;;
66020;SDS011;52789;59.980;30.346;2023-10-31T14:01:59;8.60;;;4.57;;
66020;SDS011;52789;59.980;30.346;2023-10-31T14:04:25;13.67;;;5.70;;
66020;SDS011;52789;59.980;30.346;2023-10-31T14:06:50;7.83;;;5.53;;
66020;SDS011;52789;59.980;30.346;2023-10-31T14:09:16;6.50;;;5.17;;
66020;SDS011;52789;59.980;30.346;2023-10-31T14:11:42;6.20;;;4.53;;
66020;SDS011;52789;59.980;30.346;2023-10-31T14:14:07;6.13;;;5.03;;
66020;SDS011;52789;59.980;30.346;2023-10-31T14:16:39;9.50;;;5.07;;
66020;SDS011;52789;59.980;30.346;2023-10-31T14:19:05;9.73;;;5.67;;
66020;SDS011;52789;59.980;30.346;2023-10-31T14:21:36;8.90;;;5.90;;
66020;SDS011;52789;59.980;30.346;2023-10-31T14:24:02;5.90;;;4.43;;
66020;SDS011;52789;59.980;30.346;2023-10-31T14:26:29;7.00;;;4.63;;
66020;SDS011;52789;59.980;30.346;2023-10-31T14:28:56;7.50;;;5.00;;
66020;SDS011;52789;59.980;30.346;2023-10-31T14:31:21;7.93;;;4.93;;
66020;SDS011;52789;59.980;30.346;2023-10-31T14:33:47;5.57;;;4.10;;
66020;SDS011;52789;59.980;30.346;2023-10-31T14:36:14;6.73;;;4.80;;
66020;SDS011;52789;59.980;30.346;2023-10-31T14:38:42;6.35;;;4.75;;